createdAt,value
2023-03-23T15:59:29.060Z,5.75
2023-03-23T16:01:57.348Z,6.32
2023-03-23T16:04:24.636Z,7.22
2023-03-23T16:06:57.474Z,5.35
2023-03-23T16:09:24.644Z,6.47
2023-03-23T16:11:51.948Z,10.52
2023-03-23T16:14:18.852Z,8.38
2023-03-23T16:16:51.107Z,7.78
2023-03-23T16:19:20.480Z,7.93
2023-03-23T16:21:47.838Z,7.93
2023-03-23T16:24:14.826Z,8.30
2023-03-23T16:26:42.170Z,8.30
2023-03-23T16:29:28.284Z,8.70
2023-03-23T16:32:01.665Z,8.38
2023-03-23T16:34:30.195Z,7.18
2023-03-23T16:36:57.526Z,8.30
2023-03-23T16:39:24.509Z,9.18
2023-03-23T16:41:51.725Z,8.48
2023-03-23T16:44:18.671Z,12.48
2023-03-23T16:46:46.025Z,18.52
2023-03-23T16:49:12.960Z,12.00
2023-03-23T16:51:41.624Z,12.35
2023-03-23T16:54:08.769Z,10.45
2023-03-23T16:56:36.153Z,8.57
2023-03-23T16:59:03.152Z,9.90
2023-03-23T17:01:30.836Z,11.30
2023-03-23T17:03:57.841Z,12.77
2023-03-23T17:06:25.635Z,12.38
2023-03-23T17:08:52.536Z,13.73
2023-03-23T17:11:19.709Z,16.42
2023-03-23T17:13:46.637Z,12.95
2023-03-23T17:16:14.154Z,12.93
2023-03-23T17:18:41.247Z,11.95
2023-03-23T17:21:08.444Z,12.60
2023-03-23T17:23:35.892Z,10.15
2023-03-23T17:26:04.333Z,9.23
2023-03-23T17:28:31.281Z,8.82
2023-03-23T17:30:58.660Z,10.73
2023-03-23T17:33:25.679Z,12.05
2023-03-23T17:35:54.009Z,16.70
2023-03-23T17:38:21.048Z,10.43
2023-03-23T17:40:48.203Z,10.82
2023-03-23T17:43:15.087Z,10.80
2023-03-23T17:45:44.372Z,10.15
2023-03-23T17:48:12.712Z,10.90
2023-03-23T17:50:39.904Z,12.48
2023-03-23T17:53:06.840Z,11.45
2023-03-23T17:55:34.014Z,10.55
2023-03-23T17:58:01.065Z,19.27
2023-03-23T18:00:28.303Z,9.43
2023-03-23T18:02:56.549Z,9.82
2023-03-23T18:05:24.740Z,9.10
2023-03-23T18:07:51.642Z,8.38
2023-03-23T18:10:18.918Z,13.23
2023-03-23T18:12:48.720Z,17.88
2023-03-23T18:15:16.058Z,14.23
2023-03-23T18:17:45.537Z,11.32
2023-03-23T18:20:13.356Z,13.38
2023-03-23T18:22:40.498Z,9.40
2023-03-23T18:25:07.951Z,8.35
2023-03-23T18:27:35.290Z,10.02
2023-03-23T18:30:03.227Z,10.30
2023-03-23T18:32:30.324Z,7.70
2023-03-23T18:34:57.542Z,7.70
2023-03-23T18:37:24.446Z,8.50
2023-03-23T18:39:53.661Z,7.13
2023-03-23T18:42:21.376Z,6.82
2023-03-23T18:44:48.793Z,10.10
2023-03-23T18:47:15.985Z,8.63
2023-03-23T18:49:46.372Z,7.60
2023-03-23T18:52:13.251Z,8.25
2023-03-23T18:54:41.741Z,8.98
2023-03-23T18:57:08.681Z,8.18
2023-03-23T18:59:36.147Z,6.72
2023-03-23T19:02:03.635Z,6.57
2023-03-23T19:04:33.168Z,8.57
2023-03-23T19:09:30.089Z,8.75
2023-03-23T19:11:56.994Z,7.25
2023-03-23T19:14:24.153Z,6.93
2023-03-23T19:16:52.388Z,6.03
2023-03-23T19:19:20.265Z,6.22
2023-03-23T19:21:47.362Z,6.93
2023-03-23T19:24:16.049Z,6.30
2023-03-23T19:26:44.500Z,7.50
2023-03-23T19:31:46.308Z,7.63
2023-03-23T19:34:15.958Z,7.20
2023-03-23T19:36:48.190Z,6.32
2023-03-23T19:39:21.768Z,5.13
2023-03-23T19:41:50.559Z,6.40
2023-03-23T19:44:18.236Z,6.50
2023-03-23T19:46:45.434Z,6.32
2023-03-23T19:49:12.874Z,5.53
2023-03-23T19:51:39.907Z,5.50
2023-03-23T19:54:08.017Z,6.28
2023-03-23T19:56:36.179Z,6.22
2023-03-23T19:59:05.046Z,6.22
2023-03-23T20:01:32.612Z,5.95
2023-03-23T20:04:01.891Z,5.10
2023-03-23T20:06:29.593Z,3.95
2023-03-23T20:09:00.019Z,5.25
2023-03-23T20:11:28.887Z,5.05
2023-03-23T20:13:56.764Z,5.03
2023-03-23T20:16:24.800Z,4.85
2023-03-23T20:18:53.440Z,4.73
2023-03-23T20:21:22.819Z,5.03
2023-03-23T20:26:40.504Z,4.30
2023-03-23T20:29:08.603Z,3.95
2023-03-23T20:31:41.795Z,4.65
2023-03-23T20:34:13.002Z,4.65
2023-03-23T20:36:42.843Z,4.20
2023-03-23T20:39:13.461Z,4.63
2023-03-23T20:41:41.203Z,4.10
2023-03-23T20:44:13.999Z,4.90
2023-03-23T20:46:46.371Z,4.60
2023-03-23T20:49:14.792Z,4.50
2023-03-23T20:51:42.972Z,4.38
2023-03-23T20:54:10.945Z,4.28
2023-03-23T20:56:40.431Z,4.72
2023-03-23T20:59:08.379Z,4.07
2023-03-23T21:01:35.863Z,4.40
2023-03-23T21:04:03.852Z,3.95
2023-03-23T21:06:31.421Z,4.57
2023-03-23T21:08:58.976Z,4.70
2023-03-23T21:11:27.662Z,4.63
2023-03-23T21:13:54.858Z,4.68
2023-03-23T21:16:24.159Z,4.47
2023-03-23T21:18:51.535Z,4.55
2023-03-23T21:21:18.956Z,4.55
2023-03-23T21:23:47.307Z,4.30
2023-03-23T21:26:16.979Z,4.72
2023-03-23T21:28:45.583Z,5.03
2023-03-23T21:31:13.718Z,5.22
2023-03-23T21:33:41.373Z,4.80
2023-03-23T21:36:08.536Z,4.13
2023-03-23T21:38:35.805Z,4.70
2023-03-23T21:41:09.845Z,4.32
2023-03-23T21:43:37.222Z,5.07
2023-03-23T21:46:06.082Z,6.43
2023-03-23T21:48:33.372Z,5.50
2023-03-23T21:51:08.927Z,4.95
2023-03-23T21:53:37.136Z,15.27
2023-03-23T21:56:07.003Z,12.18
2023-03-23T21:58:34.180Z,8.20
2023-03-23T22:01:02.244Z,7.10
2023-03-23T22:03:33.194Z,7.28
2023-03-23T22:06:10.068Z,4.72
2023-03-23T22:08:38.953Z,5.88
2023-03-23T22:11:12.140Z,7.18
2023-03-23T22:13:40.836Z,7.35
2023-03-23T22:16:11.666Z,5.70
2023-03-23T22:18:39.937Z,5.32
2023-03-23T22:21:07.567Z,4.80
2023-03-23T22:23:35.717Z,4.20
2023-03-23T22:26:02.792Z,5.07
2023-03-23T22:28:31.122Z,4.57
2023-03-23T22:31:04.249Z,4.78
2023-03-23T22:33:31.936Z,4.90
2023-03-23T22:36:00.283Z,4.22
2023-03-23T22:38:27.649Z,3.70
2023-03-23T22:40:56.389Z,3.55
2023-03-23T22:43:24.327Z,3.80
2023-03-23T22:45:52.212Z,3.30
2023-03-23T22:48:21.526Z,3.97
2023-03-23T22:50:48.976Z,4.13
2023-03-23T22:53:17.492Z,3.92
2023-03-23T22:55:46.889Z,4.10
2023-03-23T22:58:14.935Z,3.80
2023-03-23T23:00:46.327Z,3.85
2023-03-23T23:03:13.805Z,4.93
2023-03-23T23:05:45.857Z,4.88
2023-03-23T23:08:15.896Z,3.42
2023-03-23T23:10:46.827Z,3.17
2023-03-23T23:13:14.915Z,3.95
2023-03-23T23:15:45.839Z,3.72
2023-03-23T23:18:13.979Z,3.58
2023-03-23T23:20:41.549Z,3.50
2023-03-23T23:23:09.931Z,4.13
2023-03-23T23:25:37.196Z,4.07
2023-03-23T23:28:06.059Z,4.10
2023-03-23T23:30:34.695Z,4.20
2023-03-23T23:33:02.264Z,4.07
2023-03-23T23:35:29.410Z,4.13
2023-03-23T23:37:56.684Z,4.20
2023-03-23T23:40:23.942Z,3.83
2023-03-23T23:42:52.110Z,3.95
2023-03-23T23:45:19.855Z,4.45
2023-03-23T23:47:47.553Z,3.80
2023-03-23T23:50:15.241Z,4.53
2023-03-23T23:52:44.742Z,4.30
2023-03-23T23:55:15.478Z,3.08
2023-03-23T23:57:44.960Z,3.90
